Antigo, Wisconsin
Current Conditions -  °F | °C
As of 8:35 PM on Friday 24 Oct 2014 (Local Time) from KAIG Reporting Station
Overcast Overcast  
Wind Chill: 52°   Ceiling: 2000
Heat Index: 52°   Visibility: 10mi
Dew Point: 50°   Wind: 5mph
Humidity: 91%   Direction: 210°SSW
Pressure: 29.86"   Gusts: NA
Location:  45.14°N, 89.15°W
Report Text: KAIG 250135Z AUTO 21004KT 10SM OVC020 11/10 A2986 RMK AO2 T01130098
Loading
Personal Weather Stations






























Interactive Weather Map New forecast layout! Learn more

10-Day Weather Forecast

Advertisements
Track Severe Weather on mobile